Time;durP1;ratioP1;P1;durP2;ratioP2;P2;SDS_P1;SDS_P2;PMS_P1;PMS_P2;Temp;Humidity;BMP_temperature;BMP_pressure;BME280_temperature;BME280_humidity;BME280_pressure;Samples;Min_cycle;Max_cycle;Signal;HPM_P1;HPM_P2
2021/08/02 00:09:05;;;;;;;0.22;0.22;;;11.60;99.90;;;;;;6224246;22;22213;31
2021/08/02 00:23:43;;;;;;;0.10;0.10;;;11.50;99.90;;;;;;5967974;24;20964;-96
2021/08/02 00:27:15;;;;;;;0.10;0.10;;;11.60;99.90;;;;;;5969118;23;20552;-96
2021/08/02 00:30:08;;;;;;;0.10;0.10;;;11.50;99.90;;;;;;5866177;24;20415;-94
2021/08/02 00:32:44;;;;;;;0.20;0.20;;;11.50;99.90;;;;;;5869135;24;20446;-96
2021/08/02 00:35:30;;;;;;;0.10;0.10;;;11.50;99.90;;;;;;6027338;22;20453;-96
2021/08/02 00:38:36;;;;;;;0.10;0.10;;;11.50;99.90;;;;;;6242729;22;20915;-96
2021/08/02 00:41:31;;;;;;;0.20;0.20;;;11.60;99.90;;;;;;6287815;22;20365;-96
2021/08/02 00:44:45;;;;;;;0.10;0.10;;;11.50;99.90;;;;;;6288281;22;20391;-95
2021/08/02 00:47:22;;;;;;;0.20;0.20;;;11.60;99.90;;;;;;6171149;23;20412;-95
2021/08/02 00:50:32;;;;;;;0.30;0.30;;;11.60;99.90;;;;;;6185975;22;20400;-96
2021/08/02 00:53:22;;;;;;;0.20;0.20;;;11.60;99.90;;;;;;6229313;23;20391;-96
2021/08/02 00:58:36;;;;;;;0.10;0.10;;;11.60;99.90;;;;;;6229875;23;20388;-94
2021/08/02 01:01:14;;;;;;;0.20;0.20;;;11.60;99.90;;;;;;6225027;23;20463;-96
2021/08/02 01:04:06;;;;;;;0.10;0.10;;;11.70;99.90;;;;;;6202047;23;20482;-96
2021/08/02 01:06:38;;;;;;;0.10;0.10;;;11.70;99.90;;;;;;6224218;23;20384;-96
2021/08/02 01:09:20;;;;;;;0.20;0.20;;;11.60;99.90;;;;;;6226282;23;20410;-95
2021/08/02 01:12:02;;;;;;;0.15;0.15;;;11.60;99.90;;;;;;6224954;23;20383;-95
2021/08/02 01:14:56;;;;;;;0.30;0.30;;;11.60;99.90;;;;;;6226810;23;20371;-96
2021/08/02 01:17:27;;;;;;;0.30;0.15;;;11.70;99.90;;;;;;6200483;23;20455;-95
2021/08/02 01:20:16;;;;;;;0.10;0.10;;;11.70;99.90;;;;;;6230746;23;20399;-96
2021/08/02 01:23:14;;;;;;;0.20;0.20;;;11.70;99.90;;;;;;6143387;23;20505;-96
2021/08/02 01:26:26;;;;;;;0.20;0.20;;;11.70;99.90;;;;;;6141621;23;20417;-96
2021/08/02 01:32:00;;;;;;;0.10;0.10;;;11.70;99.90;;;;;;6232507;23;20372;-96
2021/08/02 01:35:02;;;;;;;0.20;0.20;;;11.60;99.90;;;;;;6230583;23;20360;-95
2021/08/02 01:37:45;;;;;;;0.10;0.10;;;11.70;99.90;;;;;;6232623;22;20557;-95
2021/08/02 01:40:34;;;;;;;0.20;0.20;;;11.60;99.90;;;;;;6291314;22;20390;-96
2021/08/02 01:43:48;;;;;;;0.10;0.10;;;11.60;99.90;;;;;;6224259;22;20494;-96
2021/08/02 01:46:55;;;;;;;0.30;0.30;;;11.60;99.90;;;;;;6260685;22;20440;-96
2021/08/02 01:50:29;;;;;;;0.47;0.40;;;11.60;99.90;;;;;;6222351;22;20394;-96
2021/08/02 01:53:02;;;;;;;0.10;0.10;;;11.60;99.90;;;;;;6140548;23;20393;-96
2021/08/02 01:56:06;;;;;;;0.20;0.20;;;11.50;99.90;;;;;;6100108;23;20451;-96
2021/08/02 01:59:26;;;;;;;0.15;0.15;;;11.50;99.90;;;;;;6261971;22;20474;-95
2021/08/02 02:02:18;;;;;;;0.60;0.40;;;11.50;99.90;;;;;;6210024;23;20368;-96
2021/08/02 02:05:12;;;;;;;0.20;0.20;;;11.50;99.90;;;;;;6225851;23;20412;-96
2021/08/02 02:08:19;;;;;;;1.00;0.60;;;11.50;99.90;;;;;;6190375;23;20506;-96
2021/08/02 02:11:02;;;;;;;0.20;0.20;;;11.40;99.90;;;;;;6088068;23;20560;-96
2021/08/02 02:13:38;;;;;;;0.40;0.40;;;11.50;99.90;;;;;;6127489;22;20498;-96
2021/08/02 02:16:11;;;;;;;0.30;0.30;;;11.40;99.90;;;;;;6216398;22;20416;-96
2021/08/02 02:19:24;;;;;;;0.10;0.10;;;11.40;99.90;;;;;;6230139;22;20374;-96
2021/08/02 02:37:04;;;;;;;0.93;0.73;;;11.30;99.90;;;;;;6284845;22;20388;-96
2021/08/02 02:45:48;;;;;;;1.10;0.60;;;11.30;99.90;;;;;;6242192;22;20391;-96
2021/08/02 02:48:40;;;;;;;0.13;0.13;;;11.20;99.90;;;;;;6235993;22;20405;-95
2021/08/02 02:51:22;;;;;;;0.10;0.10;;;11.30;99.90;;;;;;6212155;22;20405;-95
2021/08/02 02:54:07;;;;;;;0.20;0.20;;;11.30;99.90;;;;;;6246085;22;20449;-96
2021/08/02 02:57:07;;;;;;;0.10;0.10;;;11.30;99.90;;;;;;6246637;22;20393;-96
2021/08/02 02:59:35;;;;;;;0.20;0.20;;;11.30;99.90;;;;;;6265866;22;20407;-95
2021/08/02 03:02:23;;;;;;;0.17;0.17;;;11.30;99.90;;;;;;6198131;23;20381;-95
2021/08/02 03:05:14;;;;;;;0.70;0.30;;;11.30;99.90;;;;;;6218256;22;20386;-95
2021/08/02 03:08:40;;;;;;;0.30;0.30;;;11.30;99.90;;;;;;6183462;23;20387;-95
2021/08/02 03:14:24;;;;;;;1.95;0.90;;;11.30;99.90;;;;;;6269967;22;20400;-96
2021/08/02 03:17:37;;;;;;;0.40;0.40;;;11.30;99.90;;;;;;6214317;23;20435;-95
2021/08/02 03:31:06;;;;;;;0.20;0.20;;;11.30;99.90;;;;;;6232828;22;20391;-95
2021/08/02 03:34:06;;;;;;;0.50;0.50;;;11.40;99.90;;;;;;6274414;22;20418;-96
2021/08/02 03:37:03;;;;;;;0.20;0.20;;;11.30;99.90;;;;;;6300485;22;20363;-96
2021/08/02 04:07:30;;;;;;;6.10;1.33;;;11.40;99.90;;;;;;6239395;22;20388;-96
2021/08/02 04:10:45;;;;;;;0.40;0.40;;;11.40;99.90;;;;;;6261361;22;20384;31
2021/08/02 04:13:32;;;;;;;0.10;0.10;;;11.40;99.90;;;;;;6229137;22;20462;-96
2021/08/02 04:16:40;;;;;;;0.30;0.30;;;11.40;99.90;;;;;;6191694;23;20390;-96
2021/08/02 04:19:48;;;;;;;0.10;0.10;;;11.40;99.90;;;;;;6235709;22;20379;-96
2021/08/02 04:22:46;;;;;;;0.30;0.30;;;11.40;99.90;;;;;;6219757;22;20390;-96
2021/08/02 04:25:18;;;;;;;0.20;0.20;;;11.40;99.90;;;;;;6239342;22;20407;-96
2021/08/02 04:27:54;;;;;;;0.20;0.20;;;11.40;99.90;;;;;;6289746;22;20390;-94
2021/08/02 04:40:25;;;;;;;0.22;0.22;;;11.50;99.90;;;;;;6136066;23;20427;-96
2021/08/02 07:31:28;;;;;;;0.60;0.60;;;12.20;99.90;;;;;;6242033;23;20408;-96
2021/08/02 07:36:29;;;;;;;0.60;0.60;;;12.20;99.90;;;;;;6287344;22;20394;-96
2021/08/02 07:39:20;;;;;;;0.28;0.28;;;12.40;99.90;;;;;;6293237;22;20378;-96
2021/08/02 12:02:47;;;;;;;0.10;0.10;;;19.50;99.90;;;;;;6266797;22;20392;-95
2021/08/02 12:34:58;;;;;;;0.10;0.10;;;18.10;99.90;;;;;;6280877;22;20378;-96
2021/08/02 12:40:24;;;;;;;1.90;0.57;;;17.30;99.90;;;;;;6207632;22;20369;-96
2021/08/02 12:43:06;;;;;;;0.10;0.10;;;16.80;99.90;;;;;;6259253;22;20380;-96
2021/08/02 12:45:35;;;;;;;1.40;0.60;;;16.40;99.90;;;;;;6256961;22;20525;-95
2021/08/02 12:48:07;;;;;;;0.30;0.30;;;16.10;99.90;;;;;;6256692;22;20493;-96
2021/08/02 12:50:41;;;;;;;0.25;0.25;;;15.90;99.90;;;;;;6249815;22;20372;-94
2021/08/02 12:53:08;;;;;;;0.38;0.30;;;15.70;99.90;;;;;;6257800;22;20408;-95
2021/08/02 12:55:35;;;;;;;10.70;0.90;;;15.90;99.90;;;;;;6257465;22;20445;-95
2021/08/02 12:58:03;;;;;;;0.10;0.10;;;16.00;99.90;;;;;;6257928;22;20448;-95
2021/08/02 13:00:30;;;;;;;0.20;0.20;;;16.10;99.90;;;;;;6257334;22;20492;-94
2021/08/02 13:02:57;;;;;;;0.30;0.30;;;16.30;99.90;;;;;;6282430;22;20391;-95
2021/08/02 13:05:24;;;;;;;0.55;0.50;;;16.70;99.90;;;;;;6256639;22;20468;-95
2021/08/02 13:07:51;;;;;;;0.10;0.10;;;17.50;99.90;;;;;;6257405;22;20408;-94
2021/08/02 13:10:18;;;;;;;0.20;0.20;;;18.60;99.90;;;;;;6255533;22;20400;-95
2021/08/02 13:12:55;;;;;;;0.30;0.30;;;19.70;99.90;;;;;;6262495;22;20388;-96
2021/08/02 13:15:42;;;;;;;0.10;0.10;;;20.60;99.90;;;;;;6222907;22;20392;-93
2021/08/02 13:18:28;;;;;;;0.50;0.50;;;21.20;99.90;;;;;;6211454;22;20413;-95
2021/08/02 13:21:15;;;;;;;0.20;0.20;;;21.60;99.90;;;;;;6277300;22;20372;-93
2021/08/02 13:28:00;;;;;;;0.20;0.20;;;22.50;99.90;;;;;;6158363;23;20490;-93
2021/08/02 13:30:55;;;;;;;0.10;0.10;;;22.70;99.90;;;;;;6097049;23;20383;-94
2021/08/02 13:36:08;;;;;;;0.10;0.10;;;22.60;99.90;;;;;;6233528;22;20390;-92
2021/08/02 13:38:52;;;;;;;;;;;;;;;;;;;;;
2021/08/02 13:42:08;;;;;;;0.50;0.50;;;22.50;99.90;;;;;;6267531;22;20395;-96
2021/08/02 13:45:11;;;;;;;0.10;0.10;;;22.60;99.90;;;;;;6218268;22;20356;-94
2021/08/02 13:47:54;;;;;;;0.10;0.10;;;23.10;99.40;;;;;;6285250;22;20456;-96
2021/08/02 14:04:24;;;;;;;3.10;0.97;;;23.40;95.80;;;;;;6264669;22;20384;-96
2021/08/02 14:07:34;;;;;;;3.00;1.10;;;23.50;97.70;;;;;;6236052;22;20381;-96
2021/08/02 14:19:14;;;;;;;3.08;0.93;;;22.70;96.80;;;;;;6302607;22;20382;-96
2021/08/02 14:21:43;;;;;;;2.05;1.10;;;22.30;96.60;;;;;;6286436;22;20438;-95
2021/08/02 14:26:58;;;;;;;1.65;1.08;;;23.40;95.10;;;;;;6296999;22;20392;-95
2021/08/02 14:29:32;;;;;;;5.95;1.20;;;23.80;96.20;;;;;;6257944;22;20396;-96
2021/08/02 14:32:01;;;;;;;2.10;1.00;;;24.10;96.00;;;;;;6225855;22;20398;-96
2021/08/02 14:34:28;;;;;;;3.30;1.17;;;24.40;92.00;;;;;;6223696;23;20708;-95
2021/08/02 14:36:59;;;;;;;3.92;1.00;;;24.10;90.60;;;;;;6224139;23;20393;-94
2021/08/02 14:39:58;;;;;;;2.38;1.00;;;23.80;92.70;;;;;;6221012;23;20444;-95
2021/08/02 14:42:31;;;;;;;2.13;0.90;;;23.50;92.40;;;;;;6215462;23;20382;-96
2021/08/02 14:45:09;;;;;;;2.13;1.05;;;23.60;91.20;;;;;;6219912;23;20465;-96
2021/08/02 14:47:40;;;;;;;1.58;0.93;;;23.50;90.90;;;;;;6220690;23;20472;-96
2021/08/02 14:50:14;;;;;;;1.90;1.00;;;23.30;90.60;;;;;;6221100;23;20551;-96
2021/08/02 14:52:44;;;;;;;1.50;0.93;;;22.90;92.00;;;;;;6220904;23;20775;-96
2021/08/02 14:55:18;;;;;;;2.90;0.90;;;22.80;91.80;;;;;;6223223;23;20393;-95
2021/08/02 14:57:56;;;;;;;1.70;0.82;;;23.10;91.30;;;;;;6221364;23;20382;-95
2021/08/02 15:00:32;;;;;;;3.58;1.13;;;23.40;92.70;;;;;;6222652;23;20390;-96
2021/08/02 15:03:03;;;;;;;2.38;0.93;;;23.50;90.60;;;;;;6221302;23;20472;-96
2021/08/02 15:05:43;;;;;;;2.20;0.85;;;23.50;90.70;;;;;;6223213;23;20421;-96
2021/08/02 15:08:10;;;;;;;2.92;1.00;;;23.40;91.20;;;;;;6220512;23;20384;-96
2021/08/02 15:10:41;;;;;;;3.17;1.00;;;23.30;91.20;;;;;;6220020;23;20401;-96
2021/08/02 15:13:14;;;;;;;2.20;1.00;;;23.20;90.60;;;;;;6222103;23;20438;-96
2021/08/02 15:15:50;;;;;;;1.67;0.90;;;23.20;91.20;;;;;;6222150;23;20487;-96
2021/08/02 15:18:32;;;;;;;2.17;0.85;;;23.20;91.10;;;;;;6220361;23;20382;-96
2021/08/02 15:21:03;;;;;;;3.60;0.95;;;23.10;90.60;;;;;;6219338;23;20382;-96
2021/08/02 15:23:51;;;;;;;2.65;0.93;;;23.20;90.70;;;;;;6222615;23;20477;-95
2021/08/02 15:26:19;;;;;;;2.65;1.15;;;23.50;91.30;;;;;;6220447;23;20752;-96
2021/08/02 15:28:56;;;;;;;1.40;1.00;;;23.30;90.20;;;;;;6220587;23;20382;-95
2021/08/02 15:31:25;;;;;;;2.28;1.15;;;23.40;90.80;;;;;;6220601;23;20477;-95
2021/08/02 15:33:55;;;;;;;2.47;1.10;;;23.40;90.40;;;;;;6219420;23;20440;-96
2021/08/02 15:36:24;;;;;;;2.10;1.10;;;23.60;89.30;;;;;;6221382;23;20397;-96
2021/08/02 15:39:19;;;;;;;3.00;1.10;;;23.50;88.20;;;;;;6212082;23;20389;-96
2021/08/02 15:41:58;;;;;;;3.67;1.00;;;23.20;89.30;;;;;;6222894;23;20743;-96
2021/08/02 15:44:29;;;;;;;3.58;0.90;;;23.20;87.40;;;;;;6220263;23;20875;-96
2021/08/02 15:47:00;;;;;;;2.80;1.20;;;23.40;90.20;;;;;;6221347;23;20382;-96
2021/08/02 15:49:36;;;;;;;4.10;1.10;;;23.30;88.10;;;;;;6222441;23;20404;-96
2021/08/02 15:52:06;;;;;;;3.00;1.20;;;23.40;91.70;;;;;;6221882;23;20414;-96
2021/08/02 15:54:54;;;;;;;2.78;1.10;;;23.40;89.10;;;;;;6222439;23;20424;-96
2021/08/02 15:57:23;;;;;;;2.90;1.20;;;23.70;89.30;;;;;;6222725;23;20754;-96
2021/08/02 16:00:35;;;;;;;6.78;1.30;;;23.80;91.00;;;;;;6221269;23;20751;-96
2021/08/02 16:03:25;;;;;;;3.97;1.13;;;23.80;90.00;;;;;;6073627;23;20398;-96
2021/08/02 16:06:17;;;;;;;4.03;1.13;;;23.90;90.00;;;;;;6073584;23;20409;-96
2021/08/02 16:19:34;;;;;;;2.10;1.08;;;23.50;89.40;;;;;;6275386;22;20430;-93
2021/08/02 16:22:03;;;;;;;2.13;1.03;;;23.40;90.20;;;;;;6277421;22;20407;-93
2021/08/02 16:24:30;;;;;;;3.00;1.10;;;23.40;91.10;;;;;;6252445;22;20368;-94
2021/08/02 16:26:57;;;;;;;3.45;1.02;;;23.40;90.00;;;;;;6277359;22;20389;-91
2021/08/02 16:29:27;;;;;;;1.98;1.10;;;23.20;89.40;;;;;;6277740;22;20466;-94
2021/08/02 16:31:54;;;;;;;2.80;1.00;;;23.00;89.10;;;;;;6255207;22;20388;-94
2021/08/02 16:34:21;;;;;;;1.95;1.10;;;23.00;90.80;;;;;;6278434;22;20384;-95
2021/08/02 16:36:49;;;;;;;1.70;1.20;;;23.10;90.40;;;;;;6279749;22;20384;-94
2021/08/02 16:39:16;;;;;;;2.45;1.23;;;23.30;90.40;;;;;;6277111;22;20419;-94
2021/08/02 16:41:44;;;;;;;2.28;1.00;;;23.20;90.40;;;;;;6277411;22;20380;-94
2021/08/02 16:44:12;;;;;;;4.50;1.20;;;23.00;88.50;;;;;;6279407;22;20391;-94
2021/08/02 16:46:39;;;;;;;2.47;1.20;;;22.70;91.40;;;;;;6279136;22;20380;-94
2021/08/02 16:49:06;;;;;;;3.00;1.10;;;22.90;92.10;;;;;;6278658;22;20777;-94
2021/08/02 16:51:33;;;;;;;2.28;1.20;;;23.10;90.80;;;;;;6279009;22;20709;-94
2021/08/02 16:57:03;;;;;;;3.35;1.30;;;22.90;90.60;;;;;;6273828;22;20400;-95
2021/08/02 17:02:16;;;;;;;3.95;0.98;;;22.70;91.90;;;;;;6167175;23;20478;-95
2021/08/02 17:05:11;;;;;;;2.53;1.30;;;22.70;92.10;;;;;;6190571;22;20431;-95
2021/08/02 21:00:01;;;;;;;5.97;3.30;;;13.20;99.90;;;;;;6231941;22;20440;-95
2021/08/02 21:05:38;;;;;;;4.57;2.10;;;13.10;99.90;;;;;;6257680;22;20399;-96
